Time;durP1;ratioP1;P1;durP2;ratioP2;P2;SDS_P1;SDS_P2;PMS_P1;PMS_P2;Temp;Humidity;BMP_temperature;BMP_pressure;BME280_temperature;BME280_humidity;BME280_pressure;Samples;Min_cycle;Max_cycle;Signal;HPM_P1;HPM_P2
2021/12/05 00:23:15;;;;;;;5.90;1.73;;;22.50;62.10;;;;;;4079872;28;20062;-61
2021/12/05 00:25:24;;;;;;;3.58;1.23;;;22.50;62.10;;;;;;4077002;28;20044;-61
2021/12/05 00:27:36;;;;;;;3.05;1.30;;;22.50;62.10;;;;;;4079665;28;20084;-61
2021/12/05 00:29:48;;;;;;;4.03;1.27;;;22.40;62.00;;;;;;4080804;28;20436;-61
2021/12/05 00:50:31;;;;;;;4.50;1.30;;;22.30;61.70;;;;;;4089852;28;20532;-61
2021/12/05 00:52:30;;;;;;;4.30;1.58;;;22.30;61.70;;;;;;4080217;28;20046;-61
2021/12/05 00:59:17;;;;;;;4.22;1.63;;;22.30;61.70;;;;;;4086670;28;20066;-61
2021/12/05 01:16:18;;;;;;;4.53;1.35;;;;;;;;;;4090033;28;20058;-61
2021/12/05 01:18:21;;;;;;;4.32;1.50;;;;;;;;;;4082591;28;20132;-61
2021/12/05 01:20:23;;;;;;;5.45;1.50;;;;;;;;;;4082252;28;20543;-61
2021/12/05 01:22:27;;;;;;;4.97;1.67;;;;;;;;;;4088456;28;20194;-61
2021/12/05 01:26:51;;;;;;;3.10;1.33;;;;;;;;;;4080762;28;20110;-61
2021/12/05 01:29:08;;;;;;;3.60;1.50;;;;;;;;;;4088573;28;20644;-61
2021/12/05 01:35:54;;;;;;;4.43;1.40;;;;;;;;;;4088428;28;20055;-62
2021/12/05 01:38:12;;;;;;;2.53;1.25;;;;;;;;;;4082822;28;20061;-62
2021/12/05 01:58:29;;;;;;;5.22;1.95;;;;;;;;;;4083170;28;20046;-61
2021/12/05 02:07:37;;;;;;;3.80;1.67;;;;;;;;;;4090425;28;20679;-60
2021/12/05 02:31:35;;;;;;;3.13;1.20;;;;;;;;;;4095070;28;20580;-61
2021/12/05 02:40:09;;;;;;;2.50;1.23;;;;;;;;;;4087394;28;20107;-61
2021/12/05 02:42:39;;;;;;;2.75;1.13;;;;;;;;;;4074404;28;20062;-61
2021/12/05 02:44:35;;;;;;;3.10;1.13;;;;;;;;;;4083155;28;20046;-62
2021/12/05 02:46:40;;;;;;;2.40;1.10;;;;;;;;;;4091193;28;20060;-62
2021/12/05 02:48:43;;;;;;;2.05;1.30;;;;;;;;;;4087898;28;20142;-61
2021/12/05 02:50:45;;;;;;;2.25;0.82;;;;;;;;;;4084032;28;20115;-62
2021/12/05 02:52:48;;;;;;;2.75;1.30;;;;;;;;;;4082836;28;20051;-62
2021/12/05 02:54:52;;;;;;;2.88;1.30;;;;;;;;;;4090636;28;20054;-61
2021/12/05 02:56:56;;;;;;;4.82;1.67;;;;;;;;;;4084205;28;20733;-61
2021/12/05 02:59:04;;;;;;;;;;;;;;;;;;4082848;28;20056;-61
2021/12/05 03:01:16;;;;;;;2.13;1.20;;;;;;;;;;4082979;28;20040;-61
2021/12/05 03:03:18;;;;;;;2.63;1.20;;;;;;;;;;4084197;28;20046;-60
2021/12/05 03:05:21;;;;;;;3.78;1.08;;;;;;;;;;4084923;28;20062;-62
2021/12/05 03:07:27;;;;;;;3.92;1.38;;;;;;;;;;4090772;28;20238;-60
2021/12/05 03:09:29;;;;;;;2.83;1.27;;;;;;;;;;4082932;28;20083;-61
2021/12/05 03:11:31;;;;;;;4.22;1.30;;;;;;;;;;4081604;28;20126;-62
2021/12/05 03:13:40;;;;;;;4.10;1.30;;;;;;;;;;4084252;28;20046;-62
2021/12/05 03:15:42;;;;;;;3.65;1.73;;;;;;;;;;4088862;28;20061;-62
2021/12/05 03:17:44;;;;;;;3.05;1.20;;;;;;;;;;4088275;28;20097;-60
2021/12/05 03:19:46;;;;;;;4.00;1.30;;;;;;;;;;4083067;28;20165;-60
2021/12/05 03:21:49;;;;;;;4.72;1.35;;;;;;;;;;4085197;28;20054;-61
2021/12/05 03:23:52;;;;;;;4.63;1.52;;;;;;;;;;4090245;28;20091;-59
2021/12/05 03:25:55;;;;;;;3.80;1.48;;;;;;;;;;4086113;28;20050;-60
2021/12/05 03:27:57;;;;;;;4.40;1.30;;;;;;;;;;4081674;28;20050;-60
2021/12/05 03:30:00;;;;;;;4.28;1.30;;;;;;;;;;4083048;28;20051;-63
2021/12/05 03:32:02;;;;;;;2.70;1.27;;;;;;;;;;4090393;28;20050;-61
2021/12/05 03:34:05;;;;;;;4.97;1.50;;;;;;;;;;4081976;28;20065;-61
2021/12/05 03:36:09;;;;;;;1.42;0.73;;;;;;;;;;4082074;28;20491;-61
2021/12/05 03:38:11;;;;;;;5.63;1.38;;;;;;;;;;4086277;28;20058;-61
2021/12/05 03:40:14;;;;;;;3.40;1.15;;;;;;;;;;4081360;28;20481;-60
2021/12/05 03:42:16;;;;;;;4.07;1.47;;;;;;;;;;4077715;28;21292;-60
2021/12/05 03:44:19;;;;;;;3.65;1.05;;;;;;;;;;4075128;28;20042;-61
2021/12/05 03:46:21;;;;;;;3.35;1.55;;;;;;;;;;4083942;28;20057;-61
2021/12/05 03:48:25;;;;;;;3.20;1.20;;;;;;;;;;4081462;28;20065;-61
2021/12/05 03:50:26;;;;;;;;;;;;;;;;;;4078412;28;20050;-60
2021/12/05 03:52:28;;;;;;;3.47;1.30;;;;;;;;;;4076985;28;19993;-61
2021/12/05 03:54:30;;;;;;;2.20;1.10;;;;;;;;;;4084384;28;20141;-62
2021/12/05 03:56:33;;;;;;;5.15;1.48;;;;;;;;;;4076524;28;20057;-62
2021/12/05 03:58:36;;;;;;;4.32;1.20;;;;;;;;;;4076492;28;20049;-61
2021/12/05 04:02:14;;;;;;;3.75;1.17;;;22.10;59.90;;;;;;4154223;27;20913;-63
2021/12/05 04:04:18;;;;;;;3.70;1.40;;;22.10;60.40;;;;;;4152926;28;20052;-62
2021/12/05 04:06:23;;;;;;;3.38;1.10;;;22.10;60.40;;;;;;4148628;28;20139;-62
2021/12/05 04:08:27;;;;;;;2.92;1.02;;;22.10;60.20;;;;;;4149041;28;20147;-62
2021/12/05 04:10:31;;;;;;;3.60;1.30;;;22.10;60.20;;;;;;4149928;28;20147;-62
2021/12/05 04:12:32;;;;;;;;;;;22.10;60.30;;;;;;4156584;28;20056;-62
2021/12/05 04:14:42;;;;;;;3.05;1.15;;;22.10;60.10;;;;;;4147799;28;20066;-62
2021/12/05 04:16:45;;;;;;;3.45;1.13;;;22.10;60.40;;;;;;4145326;28;20052;-62
2021/12/05 04:18:48;;;;;;;3.00;1.25;;;22.10;60.00;;;;;;4148086;28;20052;-61
2021/12/05 04:20:51;;;;;;;5.32;1.38;;;22.10;59.90;;;;;;4151987;28;20076;-62
2021/12/05 04:22:54;;;;;;;3.13;1.20;;;22.10;59.80;;;;;;4151917;28;20170;-63
2021/12/05 04:24:57;;;;;;;3.78;1.27;;;22.00;59.60;;;;;;4143845;28;21205;-61
2021/12/05 04:26:59;;;;;;;4.15;1.10;;;22.10;59.70;;;;;;4145537;28;20052;-62
2021/12/05 04:29:03;;;;;;;3.90;1.00;;;22.10;59.70;;;;;;4153598;28;20087;-62
2021/12/05 04:31:08;;;;;;;4.38;1.42;;;22.10;59.80;;;;;;4153347;28;22061;-62
2021/12/05 04:33:11;;;;;;;2.30;0.85;;;22.00;59.70;;;;;;4151090;28;20056;-61
2021/12/05 04:35:14;;;;;;;5.00;1.75;;;22.10;59.70;;;;;;4150007;28;20048;-61
2021/12/05 04:37:16;;;;;;;;;;;22.00;59.60;;;;;;4156436;28;20904;-61
2021/12/05 04:39:18;;;;;;;3.55;1.00;;;22.10;59.70;;;;;;4156259;28;19935;-63
2021/12/05 04:41:20;;;;;;;3.22;1.40;;;22.10;59.60;;;;;;4148554;28;20126;-62
2021/12/05 04:43:22;;;;;;;3.45;1.48;;;22.10;59.40;;;;;;4148530;28;21105;-62
2021/12/05 04:45:28;;;;;;;2.95;1.52;;;22.00;59.40;;;;;;4158539;28;20049;-63
2021/12/05 04:47:31;;;;;;;1.95;1.17;;;22.10;59.40;;;;;;4154824;28;21974;-62
2021/12/05 04:49:33;;;;;;;3.60;1.55;;;22.10;59.40;;;;;;4150496;28;20056;-61
2021/12/05 04:51:39;;;;;;;3.72;1.30;;;22.10;59.40;;;;;;4148182;28;20052;-62
2021/12/05 04:53:41;;;;;;;4.95;1.50;;;22.00;59.40;;;;;;4151919;28;20044;-62
2021/12/05 04:55:44;;;;;;;4.57;1.60;;;22.00;59.40;;;;;;4137067;28;20160;-62
2021/12/05 04:57:48;;;;;;;3.60;1.52;;;22.00;59.30;;;;;;4133665;28;21248;-61
2021/12/05 04:59:52;;;;;;;3.08;1.30;;;22.10;59.30;;;;;;4132167;28;20063;-61
2021/12/05 05:01:59;;;;;;;4.53;1.80;;;22.00;59.10;;;;;;4138461;28;20081;-63
2021/12/05 05:04:05;;;;;;;2.85;1.20;;;22.00;59.10;;;;;;4142123;28;20061;-61
2021/12/05 05:06:13;;;;;;;4.70;1.15;;;22.00;59.00;;;;;;4140113;28;20060;-62
2021/12/05 05:08:17;;;;;;;4.70;1.80;;;22.10;59.00;;;;;;4136504;28;21749;-63
2021/12/05 05:10:31;;;;;;;5.32;1.85;;;22.00;58.80;;;;;;4133717;28;20760;-61
2021/12/05 05:12:32;;;;;;;;;;;22.00;58.80;;;;;;4129524;28;20049;-62
2021/12/05 05:14:35;;;;;;;5.32;1.40;;;22.00;58.80;;;;;;4122765;28;19952;-62
2021/12/05 05:16:37;;;;;;;4.50;1.45;;;22.00;58.80;;;;;;4130936;28;20508;-62
2021/12/05 05:18:55;;;;;;;3.03;1.40;;;22.00;58.70;;;;;;4128107;28;20052;-63
2021/12/05 05:21:07;;;;;;;3.75;1.85;;;22.00;58.60;;;;;;4126903;28;20387;-62
2021/12/05 05:25:51;;;;;;;4.15;1.70;;;22.00;58.70;;;;;;4128754;28;21893;-62
2021/12/05 05:28:00;;;;;;;3.30;1.00;;;22.00;58.60;;;;;;4133575;28;20773;-62
2021/12/05 05:30:32;;;;;;;3.13;1.42;;;22.00;58.50;;;;;;4126991;28;20052;-63
2021/12/05 05:44:10;;;;;;;3.58;1.33;;;22.00;58.50;;;;;;4127420;28;20157;-61
2021/12/05 05:46:11;;;;;;;4.45;1.63;;;22.00;58.40;;;;;;4129277;28;21909;-61
2021/12/05 05:48:36;;;;;;;3.08;1.38;;;22.00;58.40;;;;;;4128230;28;22435;-61
2021/12/05 05:50:39;;;;;;;5.20;1.45;;;22.00;58.30;;;;;;4127993;28;20064;-62
2021/12/05 05:52:40;;;;;;;;;;;22.00;58.20;;;;;;4133514;28;20887;-61
2021/12/05 05:54:46;;;;;;;5.40;1.48;;;22.00;58.20;;;;;;4126122;28;19929;-61
2021/12/05 05:56:54;;;;;;;3.78;1.08;;;22.00;58.10;;;;;;4127566;28;20508;-61
2021/12/05 05:59:05;;;;;;;3.83;1.33;;;22.00;58.10;;;;;;4126119;28;20064;-62
2021/12/05 06:01:18;;;;;;;2.42;0.90;;;22.00;58.70;;;;;;4127923;28;20563;-62
2021/12/05 06:03:21;;;;;;;3.00;0.90;;;22.00;58.00;;;;;;4129251;28;20079;-62
2021/12/05 06:05:24;;;;;;;3.83;1.27;;;21.90;58.10;;;;;;4132098;28;20046;-64
2021/12/05 06:07:26;;;;;;;3.75;1.15;;;21.90;58.00;;;;;;4135173;28;21556;-61
2021/12/05 06:09:28;;;;;;;1.67;0.75;;;22.00;58.00;;;;;;4127163;28;20515;-62
2021/12/05 06:11:30;;;;;;;2.75;1.20;;;21.90;57.90;;;;;;4127385;28;20063;-62
2021/12/05 06:13:35;;;;;;;3.00;1.08;;;22.00;57.90;;;;;;4135714;28;20715;-61
2021/12/05 06:15:37;;;;;;;3.95;1.38;;;21.90;57.90;;;;;;4130027;28;21044;-61
2021/12/05 06:17:41;;;;;;;4.30;1.25;;;21.90;57.80;;;;;;4128331;28;20053;-62
2021/12/05 06:19:43;;;;;;;5.97;1.58;;;22.00;57.90;;;;;;4126913;28;20104;-62
2021/12/05 06:21:45;;;;;;;2.40;1.10;;;21.90;57.80;;;;;;4136106;28;20049;-61
2021/12/05 06:23:48;;;;;;;1.88;0.75;;;21.90;57.80;;;;;;4126827;28;20528;-62
2021/12/05 06:25:51;;;;;;;3.90;1.17;;;21.90;57.80;;;;;;4131356;28;20061;-61
2021/12/05 06:28:03;;;;;;;3.85;1.20;;;22.00;57.80;;;;;;4132685;28;20460;-62
2021/12/05 06:30:16;;;;;;;3.28;1.10;;;21.90;57.70;;;;;;4130697;28;20174;-62
2021/12/05 06:46:02;;;;;;;4.72;1.13;;;21.90;57.50;;;;;;4141906;28;20088;-62
2021/12/05 06:48:04;;;;;;;2.53;1.13;;;21.90;57.50;;;;;;4138700;28;20369;-62
2021/12/05 06:50:07;;;;;;;2.47;1.10;;;21.90;57.40;;;;;;4133449;28;20166;-62
2021/12/05 06:52:10;;;;;;;4.55;1.00;;;21.90;57.40;;;;;;4129038;28;20111;-62
2021/12/05 06:54:12;;;;;;;2.88;1.23;;;21.90;57.40;;;;;;4127539;28;20135;-62
2021/12/05 06:56:14;;;;;;;1.52;0.82;;;21.90;57.40;;;;;;4134035;28;20226;-62
2021/12/05 06:58:16;;;;;;;2.37;1.07;;;21.90;57.40;;;;;;4126877;28;20096;-61
2021/12/05 07:03:07;;;;;;;3.03;1.17;;;21.90;56.80;;;;;;4194890;27;20359;-62
2021/12/05 07:07:27;;;;;;;4.68;1.23;;;21.90;57.90;;;;;;4189999;28;20055;-58
2021/12/05 07:09:29;;;;;;;4.93;1.20;;;21.90;57.80;;;;;;4170654;28;20048;-59
2021/12/05 07:12:02;;;;;;;2.50;1.10;;;21.90;57.60;;;;;;4191581;28;20057;-58
2021/12/05 07:20:39;;;;;;;1.83;0.90;;;21.90;57.80;;;;;;4179522;28;20164;-57
2021/12/05 07:23:12;;;;;;;4.15;1.20;;;21.90;57.80;;;;;;4183927;28;20142;-58
2021/12/05 07:25:27;;;;;;;6.05;1.63;;;21.80;57.70;;;;;;4191765;28;20055;-57
2021/12/05 07:43:49;;;;;;;2.50;0.90;;;;;;;;;;4192635;28;20476;-57
2021/12/05 07:46:01;;;;;;;2.97;0.93;;;21.90;59.10;;;;;;4161639;28;20044;-58
2021/12/05 07:48:12;;;;;;;3.00;0.95;;;21.90;59.20;;;;;;4186754;28;20055;-59
2021/12/05 07:50:15;;;;;;;3.40;1.00;;;21.90;59.20;;;;;;4181658;28;20196;-57
2021/12/05 07:52:21;;;;;;;5.78;1.17;;;21.90;59.10;;;;;;4177209;28;20051;-58
2021/12/05 07:54:40;;;;;;;2.95;0.73;;;21.90;59.00;;;;;;4179470;28;21493;-56
2021/12/05 07:56:54;;;;;;;2.63;0.80;;;21.90;59.10;;;;;;4163232;28;20830;-58
2021/12/05 08:15:41;;;;;;;0.63;0.50;;;22.10;59.80;;;;;;4142331;28;20805;-58
2021/12/05 08:17:49;;;;;;;1.13;0.75;;;22.10;59.70;;;;;;4173110;28;20512;-57
2021/12/05 08:19:51;;;;;;;6.10;0.70;;;22.10;59.70;;;;;;4178707;28;20047;-60
2021/12/05 08:21:55;;;;;;;0.77;0.57;;;22.10;59.80;;;;;;4169233;28;20196;-60
2021/12/05 08:23:57;;;;;;;1.00;0.60;;;22.10;59.90;;;;;;4168688;28;20639;-60
2021/12/05 08:26:15;;;;;;;2.67;0.60;;;22.20;59.80;;;;;;4170215;28;20062;-59
2021/12/05 08:29:08;;;;;;;0.50;0.50;;;22.20;59.80;;;;;;4169986;28;20048;-60
2021/12/05 08:30:40;;;;;;;1.38;0.68;;;22.20;59.80;;;;;;4159024;28;20136;-60
2021/12/05 08:33:08;;;;;;;1.15;0.52;;;22.20;59.70;;;;;;4166456;28;20082;-58
2021/12/05 08:35:35;;;;;;;1.83;0.43;;;22.30;59.30;;;;;;4173725;28;20207;-58
2021/12/05 08:44:21;;;;;;;1.20;0.40;;;22.30;59.70;;;;;;4174183;28;20148;-59
2021/12/05 10:16:46;;;;;;;2.73;0.80;;;22.70;59.00;;;;;;4171939;28;20129;-58
2021/12/05 10:38:06;;;;;;;1.00;0.40;;;22.70;59.00;;;;;;4169367;28;20056;-62
2021/12/05 10:40:18;;;;;;;0.88;0.57;;;22.70;59.00;;;;;;4172809;28;20686;-60
2021/12/05 10:42:38;;;;;;;1.33;0.70;;;22.70;59.00;;;;;;4169927;28;20056;-60
2021/12/05 10:44:45;;;;;;;0.90;0.63;;;22.70;58.90;;;;;;4177463;28;20051;-60
2021/12/05 10:46:50;;;;;;;0.50;0.50;;;22.70;58.90;;;;;;4184676;28;20048;-62
2021/12/05 10:49:03;;;;;;;0.68;0.57;;;22.70;58.80;;;;;;4178151;28;20960;-59
2021/12/05 10:51:12;;;;;;;0.68;0.52;;;22.70;58.90;;;;;;4156287;28;20053;-59
2021/12/05 10:53:27;;;;;;;0.82;0.60;;;22.80;58.80;;;;;;4179365;28;20057;-62
2021/12/05 10:55:31;;;;;;;2.05;0.50;;;22.70;58.90;;;;;;4165178;28;20060;-60
2021/12/05 10:57:40;;;;;;;;;;;22.70;59.00;;;;;;4172918;28;20048;-61
2021/12/05 10:59:44;;;;;;;0.73;0.60;;;22.70;58.90;;;;;;4168409;28;21483;-63
2021/12/05 11:01:47;;;;;;;2.72;0.60;;;22.80;58.90;;;;;;4171426;28;20545;-61
2021/12/05 11:03:54;;;;;;;0.50;0.50;;;22.70;58.80;;;;;;4152497;28;20048;-61
2021/12/05 11:05:57;;;;;;;1.42;0.60;;;22.70;58.90;;;;;;4171235;28;20059;-59
2021/12/05 11:07:59;;;;;;;1.83;0.98;;;22.70;58.80;;;;;;4173336;28;20474;-61
2021/12/05 11:10:03;;;;;;;1.38;0.65;;;22.80;58.90;;;;;;4165535;28;20102;-61
2021/12/05 11:12:08;;;;;;;1.23;0.50;;;22.70;59.40;;;;;;4139738;28;20056;-61
2021/12/05 11:14:14;;;;;;;1.38;0.50;;;22.80;58.80;;;;;;4158994;28;20051;-59
2021/12/05 11:16:38;;;;;;;0.82;0.70;;;22.70;58.80;;;;;;4167897;28;20440;-59
2021/12/05 11:18:43;;;;;;;3.15;0.60;;;22.80;58.80;;;;;;4168134;28;20047;-60
2021/12/05 11:20:45;;;;;;;1.02;0.68;;;22.70;58.70;;;;;;4163156;28;20211;-59
2021/12/05 11:22:52;;;;;;;0.55;0.52;;;22.70;58.70;;;;;;4148110;28;20060;-61
2021/12/05 11:24:59;;;;;;;1.77;0.50;;;22.80;58.80;;;;;;4174397;28;20044;-63
2021/12/05 11:27:11;;;;;;;1.20;0.50;;;22.70;58.70;;;;;;4155842;28;20082;-60
2021/12/05 11:29:14;;;;;;;0.55;0.50;;;22.80;58.80;;;;;;4170519;28;20051;-60
2021/12/05 11:31:30;;;;;;;0.40;0.40;;;22.80;58.80;;;;;;4169918;28;20190;-59
2021/12/05 11:33:46;;;;;;;1.02;0.50;;;22.70;58.70;;;;;;4156770;28;20071;-62
2021/12/05 11:36:01;;;;;;;4.90;0.70;;;22.80;58.80;;;;;;4163025;28;20059;-59
2021/12/05 11:38:11;;;;;;;1.25;0.70;;;22.80;58.60;;;;;;4157626;28;20055;-61
2021/12/05 11:40:13;;;;;;;0.73;0.60;;;22.70;58.70;;;;;;4164943;28;20148;-59
2021/12/05 11:42:21;;;;;;;0.50;0.50;;;22.80;58.60;;;;;;4173197;28;20113;-59
2021/12/05 11:44:26;;;;;;;5.78;0.77;;;22.80;58.50;;;;;;4156030;28;20154;-58
2021/12/05 11:46:33;;;;;;;2.03;0.80;;;22.80;58.50;;;;;;4166718;28;20047;-56
2021/12/05 11:48:41;;;;;;;4.68;0.80;;;22.80;58.60;;;;;;4166101;28;21043;-60
2021/12/05 11:50:43;;;;;;;3.63;1.00;;;22.80;58.40;;;;;;4166327;28;20040;-57
2021/12/05 11:52:47;;;;;;;5.38;1.33;;;22.80;58.40;;;;;;4170573;28;20196;-58
2021/12/05 11:54:51;;;;;;;7.82;0.77;;;22.80;58.40;;;;;;4168359;28;20049;-59
2021/12/05 11:57:05;;;;;;;1.35;0.70;;;22.80;58.40;;;;;;4178517;28;20173;-60
2021/12/05 11:59:11;;;;;;;2.78;0.77;;;22.80;58.40;;;;;;4173792;28;20497;-59
2021/12/05 12:01:15;;;;;;;1.33;0.88;;;22.80;58.40;;;;;;4172837;28;20044;-60
2021/12/05 12:03:34;;;;;;;3.15;1.00;;;22.80;58.60;;;;;;4170477;28;20163;-59
2021/12/05 12:05:37;;;;;;;1.05;0.70;;;22.80;58.50;;;;;;4176813;28;20655;-60
2021/12/05 12:08:02;;;;;;;0.38;0.32;;;22.80;58.50;;;;;;4171401;28;20223;-59
2021/12/05 12:10:26;;;;;;;1.33;0.60;;;22.80;58.60;;;;;;4166127;28;20715;-59
2021/12/05 12:12:28;;;;;;;1.95;0.50;;;22.70;58.50;;;;;;4149059;28;20139;-61
2021/12/05 12:14:30;;;;;;;1.10;0.82;;;22.80;58.90;;;;;;4165978;28;20078;-60
2021/12/05 12:16:34;;;;;;;1.05;0.80;;;22.70;58.60;;;;;;4173573;28;20046;-59
2021/12/05 12:18:43;;;;;;;0.63;0.60;;;22.70;58.50;;;;;;4155632;28;20067;-60
2021/12/05 12:20:47;;;;;;;1.55;0.65;;;22.70;58.80;;;;;;4156692;28;20052;-59
2021/12/05 12:22:51;;;;;;;0.38;0.38;;;22.70;58.70;;;;;;4166830;28;20721;-58
2021/12/05 12:25:01;;;;;;;0.40;0.40;;;22.70;58.80;;;;;;4170556;28;20121;-57
2021/12/05 12:27:04;;;;;;;2.03;0.63;;;22.60;58.90;;;;;;4165713;28;20166;-58
2021/12/05 12:29:08;;;;;;;0.83;0.50;;;22.70;58.70;;;;;;4177647;28;20044;-61
2021/12/05 12:31:21;;;;;;;1.27;0.60;;;22.60;58.70;;;;;;4174767;28;20284;-56
2021/12/05 12:33:52;;;;;;;1.90;0.50;;;22.60;58.90;;;;;;4160411;28;20180;-59
2021/12/05 12:35:55;;;;;;;0.75;0.60;;;22.60;58.70;;;;;;4168413;28;20040;-58
2021/12/05 12:37:59;;;;;;;;;;;22.60;58.90;;;;;;4169525;28;20117;-59
2021/12/05 12:40:01;;;;;;;2.13;0.90;;;22.60;58.90;;;;;;4176624;28;19959;-59
2021/12/05 12:42:18;;;;;;;1.20;0.70;;;22.60;59.10;;;;;;4173109;28;20090;-57
2021/12/05 12:44:20;;;;;;;1.90;0.70;;;22.60;58.90;;;;;;4175032;28;20131;-57
2021/12/05 12:46:30;;;;;;;3.85;0.65;;;22.60;59.20;;;;;;4170377;28;20059;-57
2021/12/05 12:48:32;;;;;;;2.00;0.70;;;22.60;59.30;;;;;;4168111;28;20044;-57
2021/12/05 12:50:51;;;;;;;2.22;0.63;;;22.50;59.00;;;;;;4167316;28;20051;-59
2021/12/05 12:53:13;;;;;;;2.45;0.70;;;22.50;59.40;;;;;;4168650;28;20066;-56
2021/12/05 12:55:15;;;;;;;1.33;0.60;;;22.60;59.40;;;;;;4174204;28;20036;-58
2021/12/05 12:57:26;;;;;;;0.68;0.68;;;22.50;59.30;;;;;;4170652;28;20173;-58
2021/12/05 12:59:37;;;;;;;1.95;0.70;;;22.50;59.40;;;;;;4165620;28;20052;-58
2021/12/05 13:02:32;;;;;;;1.10;0.93;;;22.50;58.70;;;;;;4099634;27;20452;-60
2021/12/05 13:05:19;;;;;;;1.58;0.55;;;22.50;59.40;;;;;;4097775;28;20058;-60
2021/12/05 13:10:05;;;;;;;1.95;0.70;;;22.50;59.30;;;;;;4132535;28;20135;-59
2021/12/05 13:12:07;;;;;;;1.00;0.70;;;22.50;59.20;;;;;;4099720;28;20058;-57
2021/12/05 13:14:09;;;;;;;0.82;0.50;;;22.50;59.30;;;;;;4091760;28;21512;-56
2021/12/05 13:16:27;;;;;;;0.95;0.60;;;22.50;59.40;;;;;;4091542;28;20982;-57
2021/12/05 13:18:31;;;;;;;0.82;0.77;;;22.50;59.40;;;;;;4092863;28;20046;-59
2021/12/05 13:20:53;;;;;;;0.95;0.57;;;22.40;59.30;;;;;;4093465;28;20058;-57
2021/12/05 13:23:03;;;;;;;0.73;0.50;;;22.40;59.40;;;;;;4093212;28;20046;-57
2021/12/05 13:25:09;;;;;;;2.30;0.80;;;22.40;59.50;;;;;;4093629;28;20425;-59
2021/12/05 13:27:31;;;;;;;1.17;0.73;;;22.40;59.50;;;;;;4093079;28;20054;-56
2021/12/05 13:29:54;;;;;;;0.68;0.45;;;22.40;59.60;;;;;;4096431;28;21848;-59
2021/12/05 13:32:16;;;;;;;3.35;1.33;;;22.40;59.80;;;;;;4097608;28;21254;-58
2021/12/05 13:34:32;;;;;;;1.05;0.40;;;22.40;59.70;;;;;;4093079;28;20472;-57
2021/12/05 13:36:36;;;;;;;2.15;0.50;;;22.40;59.80;;;;;;4093346;28;20111;-57
2021/12/05 13:38:40;;;;;;;2.13;0.50;;;22.40;59.90;;;;;;4091781;28;20054;-58
2021/12/05 13:40:42;;;;;;;1.38;0.45;;;22.40;60.10;;;;;;4098379;28;20072;-58
2021/12/05 13:43:00;;;;;;;0.82;0.40;;;22.30;60.20;;;;;;4098979;28;21064;-57
2021/12/05 13:45:25;;;;;;;14.57;1.35;;;22.30;60.20;;;;;;4100402;28;20327;-57
2021/12/05 13:47:48;;;;;;;0.70;0.60;;;22.30;60.30;;;;;;4082169;28;20156;-59
2021/12/05 13:49:50;;;;;;;2.08;0.63;;;22.30;60.20;;;;;;4095580;28;21000;-60
2021/12/05 13:51:52;;;;;;;23.33;1.27;;;22.30;60.30;;;;;;4089836;28;20069;-61
2021/12/05 13:54:00;;;;;;;0.73;0.40;;;22.30;60.30;;;;;;4086466;28;20063;-61
2021/12/05 13:56:09;;;;;;;0.93;0.75;;;22.30;60.20;;;;;;4079970;28;20050;-60
2021/12/05 13:58:41;;;;;;;3.28;0.93;;;22.30;60.80;;;;;;4083708;28;20073;-58
2021/12/05 14:00:51;;;;;;;0.75;0.40;;;22.30;60.20;;;;;;4073055;28;20090;-58
2021/12/05 14:02:54;;;;;;;3.85;0.57;;;22.30;60.30;;;;;;4074594;28;20201;-59
2021/12/05 14:04:56;;;;;;;4.15;0.70;;;22.30;60.30;;;;;;4075538;28;20053;-60
2021/12/05 14:07:09;;;;;;;3.28;0.60;;;22.30;60.30;;;;;;4080127;28;20076;-59
2021/12/05 14:09:46;;;;;;;2.90;0.68;;;22.30;60.30;;;;;;4074257;28;20057;-59
2021/12/05 14:12:06;;;;;;;1.58;0.63;;;22.30;60.50;;;;;;4082949;28;20042;-60
2021/12/05 14:14:09;;;;;;;3.92;0.60;;;22.30;60.50;;;;;;4066897;28;20074;-58
2021/12/05 14:16:11;;;;;;;4.45;0.90;;;22.30;60.50;;;;;;4071914;28;20395;-59
2021/12/05 14:18:23;;;;;;;1.52;0.73;;;22.30;60.60;;;;;;4065513;28;21179;-59
2021/12/05 14:20:26;;;;;;;4.20;0.60;;;22.20;60.60;;;;;;4064264;28;20043;-60
2021/12/05 14:22:31;;;;;;;0.55;0.50;;;22.30;60.70;;;;;;4063592;28;20054;-59
2021/12/05 14:24:40;;;;;;;5.00;0.77;;;22.30;60.60;;;;;;4066670;28;20160;-57
2021/12/05 14:26:43;;;;;;;3.13;0.60;;;22.30;60.70;;;;;;4069601;28;20066;-58
2021/12/05 14:28:59;;;;;;;5.27;0.90;;;22.30;60.80;;;;;;4073734;28;20426;-61
2021/12/05 14:31:01;;;;;;;1.98;0.40;;;22.30;60.70;;;;;;4071006;28;20391;-59
2021/12/05 14:33:03;;;;;;;1.65;0.50;;;22.30;60.70;;;;;;4069150;28;21831;-58
2021/12/05 14:35:13;;;;;;;1.23;0.52;;;22.30;60.70;;;;;;4065630;28;20055;-58
2021/12/05 14:37:19;;;;;;;2.25;0.60;;;22.30;60.60;;;;;;4065487;28;20054;-57
2021/12/05 14:39:36;;;;;;;1.48;0.70;;;22.30;60.50;;;;;;4066715;28;20058;-57
2021/12/05 14:41:41;;;;;;;1.17;0.50;;;22.30;60.50;;;;;;4067824;28;20054;-58
2021/12/05 14:43:56;;;;;;;1.10;0.60;;;22.30;60.60;;;;;;4067841;28;20053;-59
2021/12/05 14:46:02;;;;;;;1.13;0.50;;;22.30;60.60;;;;;;4067296;28;20074;-59
2021/12/05 14:48:08;;;;;;;0.50;0.40;;;22.30;60.50;;;;;;4069903;28;20047;-58
2021/12/05 14:50:31;;;;;;;2.95;0.45;;;22.30;60.60;;;;;;4075176;28;20077;-59
2021/12/05 14:52:37;;;;;;;3.08;0.65;;;22.30;60.60;;;;;;4067777;28;20049;-59
2021/12/05 14:54:40;;;;;;;1.70;0.63;;;22.30;60.60;;;;;;4068742;28;20047;-61
2021/12/05 14:56:42;;;;;;;0.40;0.40;;;22.30;60.60;;;;;;4077128;28;20058;-60
2021/12/05 14:58:45;;;;;;;5.28;0.68;;;22.30;60.50;;;;;;4071321;28;20055;-60
2021/12/05 15:00:51;;;;;;;2.22;0.60;;;22.30;60.40;;;;;;4070122;28;20063;-60
2021/12/05 15:03:13;;;;;;;1.17;0.60;;;22.30;60.30;;;;;;4073269;28;20132;-60
2021/12/05 15:05:19;;;;;;;0.95;0.40;;;22.30;60.80;;;;;;4075545;28;20136;-60
2021/12/05 15:07:23;;;;;;;0.70;0.43;;;22.30;60.20;;;;;;4074892;28;20469;-60
2021/12/05 15:09:34;;;;;;;0.50;0.50;;;22.30;60.20;;;;;;4075645;28;20118;-61
2021/12/05 15:11:36;;;;;;;1.02;0.50;;;22.30;60.20;;;;;;4073933;28;20417;-59
2021/12/05 15:13:38;;;;;;;2.22;0.68;;;22.20;60.20;;;;;;4077203;28;20043;-59
2021/12/05 15:15:41;;;;;;;0.57;0.35;;;22.20;60.20;;;;;;4066909;28;20050;-57
2021/12/05 15:17:44;;;;;;;4.83;0.70;;;22.20;60.20;;;;;;4070257;28;20096;-59
2021/12/05 15:19:57;;;;;;;2.47;0.38;;;22.20;60.30;;;;;;4072755;28;20097;-60
2021/12/05 15:21:59;;;;;;;0.40;0.40;;;22.20;60.30;;;;;;4072957;28;20059;-60
2021/12/05 15:24:12;;;;;;;0.40;0.40;;;22.10;60.20;;;;;;4070587;28;20057;-60
2021/12/05 15:26:15;;;;;;;1.20;0.40;;;22.10;60.30;;;;;;4075840;28;20065;-59
2021/12/05 15:28:18;;;;;;;0.98;0.50;;;22.10;60.20;;;;;;4065266;28;20057;-60
2021/12/05 15:30:22;;;;;;;;;;;22.10;60.30;;;;;;4064771;28;20062;-60
2021/12/05 15:32:25;;;;;;;;;;;22.10;60.30;;;;;;4067410;28;20017;-60
2021/12/05 15:34:31;;;;;;;0.47;0.40;;;22.10;60.40;;;;;;4074318;28;19969;-60
2021/12/05 15:36:35;;;;;;;1.02;0.40;;;22.10;60.30;;;;;;4067598;28;22413;-59
2021/12/05 15:38:38;;;;;;;0.30;0.30;;;22.10;60.40;;;;;;4065868;28;20058;-59
2021/12/05 15:40:43;;;;;;;0.40;0.30;;;22.10;60.40;;;;;;4065585;28;20051;-60
2021/12/05 15:42:46;;;;;;;1.15;0.40;;;22.10;60.40;;;;;;4071827;28;20327;-59
2021/12/05 15:44:51;;;;;;;0.30;0.30;;;22.10;60.40;;;;;;4069820;28;20549;-58
2021/12/05 15:47:01;;;;;;;0.75;0.40;;;22.10;60.40;;;;;;4065422;28;20693;-59
2021/12/05 15:49:04;;;;;;;1.10;0.45;;;22.00;60.60;;;;;;4064101;28;20616;-58
2021/12/05 15:51:10;;;;;;;3.85;0.60;;;22.00;60.50;;;;;;4065411;28;20050;-58
2021/12/05 15:53:13;;;;;;;1.65;0.55;;;22.00;60.80;;;;;;4068283;28;20050;-58
2021/12/05 15:55:21;;;;;;;1.75;0.75;;;22.00;60.70;;;;;;4072400;28;20055;-58
2021/12/05 15:57:34;;;;;;;0.38;0.38;;;22.00;60.70;;;;;;4070762;28;20104;-58
2021/12/05 15:59:40;;;;;;;1.67;0.63;;;22.00;60.70;;;;;;4071985;28;20051;-59
2021/12/05 16:02:12;;;;;;;0.82;0.65;;;22.00;60.10;;;;;;4162872;27;20437;-55
2021/12/05 16:04:21;;;;;;;0.90;0.43;;;22.00;60.80;;;;;;4159853;28;20048;-59
2021/12/05 16:06:36;;;;;;;0.30;0.30;;;22.00;60.80;;;;;;4162328;28;20554;-59
2021/12/05 16:08:38;;;;;;;0.60;0.40;;;22.00;60.80;;;;;;4160073;28;20795;-59
2021/12/05 16:10:46;;;;;;;0.40;0.40;;;22.00;60.70;;;;;;4169572;28;20060;-59
2021/12/05 16:12:50;;;;;;;1.08;0.40;;;22.00;60.60;;;;;;4169945;28;20131;-59
2021/12/05 16:14:56;;;;;;;0.68;0.65;;;22.00;60.60;;;;;;4164074;28;20139;-59
2021/12/05 16:16:59;;;;;;;0.80;0.40;;;22.00;60.50;;;;;;4160419;28;20058;-60
2021/12/05 16:19:07;;;;;;;1.38;0.45;;;22.10;60.50;;;;;;4161096;28;20044;-60
2021/12/05 16:21:22;;;;;;;0.65;0.38;;;22.00;60.40;;;;;;4162351;28;20063;-58
2021/12/05 16:23:25;;;;;;;0.90;0.60;;;22.00;60.50;;;;;;4161545;28;20711;-58
2021/12/05 16:25:27;;;;;;;;;;;22.10;60.60;;;;;;4168030;28;20044;-58
2021/12/05 16:27:29;;;;;;;0.68;0.52;;;22.00;60.60;;;;;;4165716;28;19976;-59
2021/12/05 16:29:32;;;;;;;0.82;0.50;;;22.00;60.50;;;;;;4160781;28;20182;-59
2021/12/05 16:31:41;;;;;;;0.93;0.73;;;22.00;60.50;;;;;;4159980;28;20136;-59
2021/12/05 16:34:06;;;;;;;1.27;0.60;;;22.00;60.60;;;;;;4162866;28;20087;-58